• Join FlightAware (Why Join?)
  • Login
  • US Flag 
08:50PM EDT


 

Airport Tracker/Info


-or-


 

Live Flight TrackerFlight Track Log ✈ EGF4281 ✈ 11-Jun-2013 ✈ KORD - KCMI

Flight Track Log - Related Links

Times and Time Zones

All times are in EDT time to prevent confusion due to time zone crossing. See the EGF4281 flight status page for this flight to view local times or setup timezone preferences in your user account.

Time Position Orientation Groundspeed Altitude Reporting Facility
EDT Latitude Longitude Course Direction KTS MPH feet Rate Location/Type
07:44PM 41.9000 -87.9000 188° South 216 249 3,300  Level Chicago TRACON
07:45PM 41.8167 -87.8858 173° South 237 273 5,600 2,100 Climbing Chicago Center
07:46PM 41.7163 -87.9587 180° South  Level Estimated
07:46PM 41.7231 -87.9039 188° South 287 330 8,300  Level Chicago Center
07:47PM 41.6279 -87.9759 192° South  Level Estimated
07:47PM 41.6456 -87.9386 199° South 296 341 10,300  Level Chicago Center
07:48PM 41.5395 -87.9931 189° South  Level Estimated
07:48PM 41.5606 -87.9719 196° South 316 364 12,400  Level Chicago Center
07:49PM 41.4659 -88.0072 188° South  Level FlightAware Approximate
07:50PM 41.4764 -88.0042 196° South 315 362 14,400  Level Chicago Center
07:51PM 41.3775 -88.0464 198° South 320 368 16,100 1,200 Climbing Chicago Center
07:52PM 41.2831 -88.0731 192° South 347 399 16,900 1,260 Climbing Chicago Center
07:53PM 41.1803 -88.0944 189° South 374 430 18,800 840 Climbing Chicago Center
07:54PM 41.0550 -88.1097 185° South 379 436 18,700 -1,020 Descending Chicago Center
07:55PM 40.9433 -88.1203 184° South 400 460 16,700 -1,920 Descending Chicago Center
07:56PM 40.8350 -88.1339 185° South 394 453 14,800 -1,920 Descending Chicago Center
07:57PM 40.7286 -88.1464 185° South 388 447 12,800 -1,800 Descending Chicago Center
07:58PM 40.6242 -88.1597 186° South 383 441 11,200 -960 Descending Chicago Center
07:59PM 40.5014 -88.1797 187° South 375 432 10,900 -420 Descending Chicago Center
08:00PM 40.4156 -88.2239 201° Southwest 328 377 10,400 -1,140 Descending Chicago Center
08:01PM 40.3431 -88.2625 202° Southwest 291 335 8,600 -2,160 Descending Chicago Center
08:02PM 40.2736 -88.2964 200° South 272 313 6,000 -2,520 Descending Chicago Center
08:03PM 40.2089 -88.3275 200° South 256 295 3,400 -1,500 Descending Chicago Center
08:04PM 40.1411 -88.3617 201° Southwest 240 276 2,900 -540 Descending Chicago Center